sensor_id;sensor_type;location;lat;lon;timestamp;P1;durP1;ratioP1;P2;durP2;ratioP2
70800;SDS011;59616;52.170;5.386;2022-11-02T00:00:38;11.38;;;1.48;;
70800;SDS011;59616;52.170;5.386;2022-11-02T00:03:07;6.38;;;1.42;;
70800;SDS011;59616;52.170;5.386;2022-11-02T00:05:34;10.98;;;1.42;;
70800;SDS011;59616;52.170;5.386;2022-11-02T00:08:01;8.32;;;1.50;;
70800;SDS011;59616;52.170;5.386;2022-11-02T00:10:28;2.92;;;1.00;;
70800;SDS011;59616;52.170;5.386;2022-11-02T00:12:55;7.10;;;1.55;;
70800;SDS011;59616;52.170;5.386;2022-11-02T00:15:23;10.13;;;1.50;;
70800;SDS011;59616;52.170;5.386;2022-11-02T00:17:52;6.15;;;1.00;;
70800;SDS011;59616;52.170;5.386;2022-11-02T00:20:20;12.25;;;1.50;;
70800;SDS011;59616;52.170;5.386;2022-11-02T00:22:49;5.88;;;1.40;;
70800;SDS011;59616;52.170;5.386;2022-11-02T00:25:17;8.48;;;1.70;;
70800;SDS011;59616;52.170;5.386;2022-11-02T00:27:45;9.70;;;1.63;;
70800;SDS011;59616;52.170;5.386;2022-11-02T00:30:12;7.97;;;1.48;;
70800;SDS011;59616;52.170;5.386;2022-11-02T00:32:40;9.52;;;1.58;;
70800;SDS011;59616;52.170;5.386;2022-11-02T00:35:07;7.70;;;2.20;;
70800;SDS011;59616;52.170;5.386;2022-11-02T00:37:35;11.73;;;1.50;;
70800;SDS011;59616;52.170;5.386;2022-11-02T00:40:02;11.57;;;1.42;;
70800;SDS011;59616;52.170;5.386;2022-11-02T00:42:30;6.57;;;1.38;;
70800;SDS011;59616;52.170;5.386;2022-11-02T00:44:57;6.95;;;1.88;;
70800;SDS011;59616;52.170;5.386;2022-11-02T00:47:25;7.78;;;1.65;;
70800;SDS011;59616;52.170;5.386;2022-11-02T00:49:52;9.35;;;1.50;;
70800;SDS011;59616;52.170;5.386;2022-11-02T00:52:19;9.02;;;1.55;;
70800;SDS011;59616;52.170;5.386;2022-11-02T00:54:49;8.23;;;1.58;;
70800;SDS011;59616;52.170;5.386;2022-11-02T00:57:17;5.40;;;1.50;;
70800;SDS011;59616;52.170;5.386;2022-11-02T00:59:44;9.27;;;1.52;;
70800;SDS011;59616;52.170;5.386;2022-11-02T01:02:13;9.73;;;1.50;;
70800;SDS011;59616;52.170;5.386;2022-11-02T01:04:40;7.30;;;1.30;;
70800;SDS011;59616;52.170;5.386;2022-11-02T01:07:07;10.30;;;1.67;;
70800;SDS011;59616;52.170;5.386;2022-11-02T01:09:35;9.85;;;1.67;;
70800;SDS011;59616;52.170;5.386;2022-11-02T01:12:01;8.05;;;1.27;;
70800;SDS011;59616;52.170;5.386;2022-11-02T01:14:28;6.43;;;1.13;;
70800;SDS011;59616;52.170;5.386;2022-11-02T01:16:56;6.72;;;1.20;;
70800;SDS011;59616;52.170;5.386;2022-11-02T01:19:23;8.38;;;1.65;;
70800;SDS011;59616;52.170;5.386;2022-11-02T01:21:50;4.57;;;1.20;;
70800;SDS011;59616;52.170;5.386;2022-11-02T01:24:17;5.65;;;1.30;;
70800;SDS011;59616;52.170;5.386;2022-11-02T01:26:48;3.40;;;0.90;;
70800;SDS011;59616;52.170;5.386;2022-11-02T01:29:15;2.88;;;0.80;;
70800;SDS011;59616;52.170;5.386;2022-11-02T01:31:42;4.53;;;0.55;;
70800;SDS011;59616;52.170;5.386;2022-11-02T01:34:09;1.17;;;0.60;;
70800;SDS011;59616;52.170;5.386;2022-11-02T01:36:36;2.97;;;0.50;;
70800;SDS011;59616;52.170;5.386;2022-11-02T01:39:04;5.05;;;0.60;;
70800;SDS011;59616;52.170;5.386;2022-11-02T01:41:31;2.75;;;0.52;;
70800;SDS011;59616;52.170;5.386;2022-11-02T01:44:00;3.92;;;0.60;;
70800;SDS011;59616;52.170;5.386;2022-11-02T01:46:35;5.68;;;0.70;;
70800;SDS011;59616;52.170;5.386;2022-11-02T01:49:07;5.82;;;0.50;;
70800;SDS011;59616;52.170;5.386;2022-11-02T01:51:39;4.28;;;0.63;;
70800;SDS011;59616;52.170;5.386;2022-11-02T01:54:09;3.65;;;0.68;;
70800;SDS011;59616;52.170;5.386;2022-11-02T01:56:38;6.40;;;0.75;;
70800;SDS011;59616;52.170;5.386;2022-11-02T01:59:07;6.57;;;0.70;;
70800;SDS011;59616;52.170;5.386;2022-11-02T02:01:35;4.45;;;0.60;;
70800;SDS011;59616;52.170;5.386;2022-11-02T02:04:03;5.32;;;1.00;;
70800;SDS011;59616;52.170;5.386;2022-11-02T02:06:35;6.28;;;0.63;;
70800;SDS011;59616;52.170;5.386;2022-11-02T02:09:03;4.10;;;0.65;;
70800;SDS011;59616;52.170;5.386;2022-11-02T02:11:38;2.90;;;0.63;;
70800;SDS011;59616;52.170;5.386;2022-11-02T02:16:47;5.95;;;0.90;;
70800;SDS011;59616;52.170;5.386;2022-11-02T02:27:49;6.57;;;0.80;;
70800;SDS011;59616;52.170;5.386;2022-11-02T02:30:21;3.33;;;0.60;;
70800;SDS011;59616;52.170;5.386;2022-11-02T02:32:53;4.32;;;0.70;;
70800;SDS011;59616;52.170;5.386;2022-11-02T02:35:26;3.28;;;0.65;;
70800;SDS011;59616;52.170;5.386;2022-11-02T02:37:55;4.75;;;0.80;;
70800;SDS011;59616;52.170;5.386;2022-11-02T02:42:55;2.97;;;0.68;;
70800;SDS011;59616;52.170;5.386;2022-11-02T02:45:45;4.47;;;0.65;;
70800;SDS011;59616;52.170;5.386;2022-11-02T02:48:13;8.15;;;1.15;;
70800;SDS011;59616;52.170;5.386;2022-11-02T02:50:48;4.93;;;0.95;;
70800;SDS011;59616;52.170;5.386;2022-11-02T02:53:21;6.60;;;1.17;;
70800;SDS011;59616;52.170;5.386;2022-11-02T02:55:50;6.43;;;1.15;;
70800;SDS011;59616;52.170;5.386;2022-11-02T02:58:19;6.63;;;1.02;;
70800;SDS011;59616;52.170;5.386;2022-11-02T03:00:47;5.72;;;1.10;;
70800;SDS011;59616;52.170;5.386;2022-11-02T03:03:19;5.55;;;1.27;;
70800;SDS011;59616;52.170;5.386;2022-11-02T03:08:22;11.30;;;1.50;;
70800;SDS011;59616;52.170;5.386;2022-11-02T03:10:52;11.02;;;1.80;;
70800;SDS011;59616;52.170;5.386;2022-11-02T03:13:34;4.30;;;1.10;;
70800;SDS011;59616;52.170;5.386;2022-11-02T03:16:11;4.80;;;1.33;;
70800;SDS011;59616;52.170;5.386;2022-11-02T03:18:47;5.85;;;1.05;;
70800;SDS011;59616;52.170;5.386;2022-11-02T03:21:23;9.43;;;1.10;;
70800;SDS011;59616;52.170;5.386;2022-11-02T03:23:57;5.20;;;1.17;;
70800;SDS011;59616;52.170;5.386;2022-11-02T03:26:28;4.90;;;1.02;;
70800;SDS011;59616;52.170;5.386;2022-11-02T03:29:05;6.90;;;1.20;;
70800;SDS011;59616;52.170;5.386;2022-11-02T03:36:40;5.40;;;1.20;;
70800;SDS011;59616;52.170;5.386;2022-11-02T03:39:11;6.97;;;1.30;;
70800;SDS011;59616;52.170;5.386;2022-11-02T03:41:41;6.38;;;1.40;;
70800;SDS011;59616;52.170;5.386;2022-11-02T03:44:11;10.80;;;1.40;;
70800;SDS011;59616;52.170;5.386;2022-11-02T03:46:40;7.22;;;1.10;;
70800;SDS011;59616;52.170;5.386;2022-11-02T03:49:12;8.55;;;1.40;;
70800;SDS011;59616;52.170;5.386;2022-11-02T03:51:42;7.70;;;1.13;;
70800;SDS011;59616;52.170;5.386;2022-11-02T03:54:20;8.50;;;1.33;;
70800;SDS011;59616;52.170;5.386;2022-11-02T03:56:52;8.68;;;1.42;;
70800;SDS011;59616;52.170;5.386;2022-11-02T03:59:23;13.20;;;1.85;;
70800;SDS011;59616;52.170;5.386;2022-11-02T04:01:51;7.57;;;1.27;;
70800;SDS011;59616;52.170;5.386;2022-11-02T04:04:19;7.18;;;1.80;;
70800;SDS011;59616;52.170;5.386;2022-11-02T04:06:47;13.63;;;1.58;;
70800;SDS011;59616;52.170;5.386;2022-11-02T04:09:16;11.02;;;1.40;;
70800;SDS011;59616;52.170;5.386;2022-11-02T04:11:43;11.60;;;1.23;;
70800;SDS011;59616;52.170;5.386;2022-11-02T04:14:31;9.18;;;1.40;;
70800;SDS011;59616;52.170;5.386;2022-11-02T04:17:10;9.05;;;1.45;;
70800;SDS011;59616;52.170;5.386;2022-11-02T04:20:07;11.75;;;1.25;;
70800;SDS011;59616;52.170;5.386;2022-11-02T04:22:35;13.25;;;1.33;;
70800;SDS011;59616;52.170;5.386;2022-11-02T04:25:21;6.95;;;1.58;;
70800;SDS011;59616;52.170;5.386;2022-11-02T04:28:07;9.13;;;1.63;;
70800;SDS011;59616;52.170;5.386;2022-11-02T04:30:41;9.88;;;1.38;;
70800;SDS011;59616;52.170;5.386;2022-11-02T04:33:08;11.82;;;1.75;;
70800;SDS011;59616;52.170;5.386;2022-11-02T04:36:01;8.02;;;1.30;;
70800;SDS011;59616;52.170;5.386;2022-11-02T04:38:29;9.05;;;1.70;;
70800;SDS011;59616;52.170;5.386;2022-11-02T04:41:18;12.50;;;1.80;;
70800;SDS011;59616;52.170;5.386;2022-11-02T04:44:11;8.75;;;1.50;;
70800;SDS011;59616;52.170;5.386;2022-11-02T04:46:42;11.25;;;1.30;;
70800;SDS011;59616;52.170;5.386;2022-11-02T04:49:11;12.02;;;1.58;;
70800;SDS011;59616;52.170;5.386;2022-11-02T04:51:40;10.73;;;1.30;;
70800;SDS011;59616;52.170;5.386;2022-11-02T04:54:15;8.48;;;1.27;;
70800;SDS011;59616;52.170;5.386;2022-11-02T04:56:43;13.65;;;1.73;;
70800;SDS011;59616;52.170;5.386;2022-11-02T04:59:11;16.42;;;1.88;;
70800;SDS011;59616;52.170;5.386;2022-11-02T05:01:38;11.45;;;1.80;;
70800;SDS011;59616;52.170;5.386;2022-11-02T05:04:08;13.45;;;1.70;;
70800;SDS011;59616;52.170;5.386;2022-11-02T05:06:35;7.97;;;1.52;;
70800;SDS011;59616;52.170;5.386;2022-11-02T05:09:03;8.13;;;1.30;;
70800;SDS011;59616;52.170;5.386;2022-11-02T05:11:31;7.90;;;1.30;;
70800;SDS011;59616;52.170;5.386;2022-11-02T05:13:59;9.18;;;1.42;;
70800;SDS011;59616;52.170;5.386;2022-11-02T05:16:27;9.35;;;1.83;;
70800;SDS011;59616;52.170;5.386;2022-11-02T05:18:56;10.77;;;1.63;;
70800;SDS011;59616;52.170;5.386;2022-11-02T05:21:23;9.25;;;1.50;;
70800;SDS011;59616;52.170;5.386;2022-11-02T05:23:53;12.95;;;1.63;;
70800;SDS011;59616;52.170;5.386;2022-11-02T05:26:20;10.98;;;1.63;;
70800;SDS011;59616;52.170;5.386;2022-11-02T05:28:48;10.80;;;1.75;;
70800;SDS011;59616;52.170;5.386;2022-11-02T05:31:18;11.55;;;1.33;;
70800;SDS011;59616;52.170;5.386;2022-11-02T05:33:46;11.65;;;1.67;;
70800;SDS011;59616;52.170;5.386;2022-11-02T05:36:17;18.13;;;2.00;;
70800;SDS011;59616;52.170;5.386;2022-11-02T05:38:51;11.15;;;1.67;;
70800;SDS011;59616;52.170;5.386;2022-11-02T05:41:19;9.38;;;1.33;;
70800;SDS011;59616;52.170;5.386;2022-11-02T05:43:47;8.25;;;1.42;;
70800;SDS011;59616;52.170;5.386;2022-11-02T05:46:15;12.10;;;1.67;;
70800;SDS011;59616;52.170;5.386;2022-11-02T05:48:43;14.27;;;1.50;;
70800;SDS011;59616;52.170;5.386;2022-11-02T05:51:11;10.73;;;1.77;;
70800;SDS011;59616;52.170;5.386;2022-11-02T05:53:38;9.82;;;1.33;;
70800;SDS011;59616;52.170;5.386;2022-11-02T05:56:05;12.50;;;1.83;;
70800;SDS011;59616;52.170;5.386;2022-11-02T05:58:33;6.68;;;1.20;;
70800;SDS011;59616;52.170;5.386;2022-11-02T06:01:00;9.43;;;1.60;;
70800;SDS011;59616;52.170;5.386;2022-11-02T06:03:28;10.32;;;1.45;;
70800;SDS011;59616;52.170;5.386;2022-11-02T06:05:59;7.85;;;1.17;;
70800;SDS011;59616;52.170;5.386;2022-11-02T06:08:26;8.98;;;1.15;;
70800;SDS011;59616;52.170;5.386;2022-11-02T06:10:54;15.68;;;1.58;;
70800;SDS011;59616;52.170;5.386;2022-11-02T06:13:21;11.13;;;1.52;;
70800;SDS011;59616;52.170;5.386;2022-11-02T06:15:48;12.57;;;1.20;;
70800;SDS011;59616;52.170;5.386;2022-11-02T06:18:15;7.18;;;1.20;;
70800;SDS011;59616;52.170;5.386;2022-11-02T06:20:42;10.23;;;1.48;;
70800;SDS011;59616;52.170;5.386;2022-11-02T06:23:09;10.10;;;1.40;;
70800;SDS011;59616;52.170;5.386;2022-11-02T06:25:39;9.50;;;1.33;;
70800;SDS011;59616;52.170;5.386;2022-11-02T06:28:06;12.10;;;1.58;;
70800;SDS011;59616;52.170;5.386;2022-11-02T06:30:33;9.43;;;1.13;;
70800;SDS011;59616;52.170;5.386;2022-11-02T06:33:00;8.13;;;1.40;;
70800;SDS011;59616;52.170;5.386;2022-11-02T06:35:32;12.90;;;1.35;;
70800;SDS011;59616;52.170;5.386;2022-11-02T06:37:59;13.15;;;1.30;;
70800;SDS011;59616;52.170;5.386;2022-11-02T06:40:26;10.02;;;1.23;;
70800;SDS011;59616;52.170;5.386;2022-11-02T06:42:54;9.02;;;1.25;;
70800;SDS011;59616;52.170;5.386;2022-11-02T06:45:41;8.98;;;1.63;;
70800;SDS011;59616;52.170;5.386;2022-11-02T06:48:08;9.13;;;1.42;;
70800;SDS011;59616;52.170;5.386;2022-11-02T06:50:35;13.30;;;1.35;;
70800;SDS011;59616;52.170;5.386;2022-11-02T06:53:02;10.07;;;1.55;;
70800;SDS011;59616;52.170;5.386;2022-11-02T06:55:30;6.85;;;1.15;;
70800;SDS011;59616;52.170;5.386;2022-11-02T06:57:57;11.32;;;1.67;;
70800;SDS011;59616;52.170;5.386;2022-11-02T07:00:24;7.90;;;1.80;;
70800;SDS011;59616;52.170;5.386;2022-11-02T07:03:01;10.50;;;1.27;;
70800;SDS011;59616;52.170;5.386;2022-11-02T07:05:29;6.38;;;1.13;;
70800;SDS011;59616;52.170;5.386;2022-11-02T07:07:56;6.40;;;1.13;;
70800;SDS011;59616;52.170;5.386;2022-11-02T07:10:24;8.65;;;1.40;;
70800;SDS011;59616;52.170;5.386;2022-11-02T07:12:52;11.85;;;1.45;;
70800;SDS011;59616;52.170;5.386;2022-11-02T07:15:19;9.60;;;1.30;;
70800;SDS011;59616;52.170;5.386;2022-11-02T07:17:46;7.25;;;1.13;;
70800;SDS011;59616;52.170;5.386;2022-11-02T07:20:14;5.72;;;0.95;;
70800;SDS011;59616;52.170;5.386;2022-11-02T07:22:41;9.27;;;1.08;;
70800;SDS011;59616;52.170;5.386;2022-11-02T07:25:08;9.05;;;1.10;;
70800;SDS011;59616;52.170;5.386;2022-11-02T07:27:38;7.93;;;1.13;;
70800;SDS011;59616;52.170;5.386;2022-11-02T07:30:06;11.02;;;1.20;;
70800;SDS011;59616;52.170;5.386;2022-11-02T07:32:39;9.52;;;1.00;;
70800;SDS011;59616;52.170;5.386;2022-11-02T07:35:10;5.63;;;1.08;;
70800;SDS011;59616;52.170;5.386;2022-11-02T07:37:37;9.52;;;1.52;;
70800;SDS011;59616;52.170;5.386;2022-11-02T07:40:05;8.88;;;1.45;;
70800;SDS011;59616;52.170;5.386;2022-11-02T07:42:32;5.43;;;1.08;;
70800;SDS011;59616;52.170;5.386;2022-11-02T07:45:02;8.60;;;1.10;;
70800;SDS011;59616;52.170;5.386;2022-11-02T07:47:29;6.13;;;0.80;;
70800;SDS011;59616;52.170;5.386;2022-11-02T07:49:56;4.40;;;1.13;;
70800;SDS011;59616;52.170;5.386;2022-11-02T07:52:24;8.75;;;1.23;;
70800;SDS011;59616;52.170;5.386;2022-11-02T07:54:51;11.98;;;1.65;;
70800;SDS011;59616;52.170;5.386;2022-11-02T07:57:18;4.88;;;1.00;;
70800;SDS011;59616;52.170;5.386;2022-11-02T07:59:45;6.90;;;0.98;;
70800;SDS011;59616;52.170;5.386;2022-11-02T08:02:13;8.25;;;1.27;;
70800;SDS011;59616;52.170;5.386;2022-11-02T08:04:40;5.30;;;0.90;;
70800;SDS011;59616;52.170;5.386;2022-11-02T08:07:10;6.90;;;1.50;;
70800;SDS011;59616;52.170;5.386;2022-11-02T08:09:37;7.28;;;1.30;;
70800;SDS011;59616;52.170;5.386;2022-11-02T08:12:05;5.45;;;0.90;;
70800;SDS011;59616;52.170;5.386;2022-11-02T08:14:32;6.63;;;0.82;;
70800;SDS011;59616;52.170;5.386;2022-11-02T08:16:59;8.38;;;1.02;;
70800;SDS011;59616;52.170;5.386;2022-11-02T08:19:26;6.55;;;1.10;;
70800;SDS011;59616;52.170;5.386;2022-11-02T08:21:53;4.78;;;1.10;;
70800;SDS011;59616;52.170;5.386;2022-11-02T08:24:21;10.13;;;1.00;;
70800;SDS011;59616;52.170;5.386;2022-11-02T08:26:48;5.43;;;1.08;;
70800;SDS011;59616;52.170;5.386;2022-11-02T08:29:20;12.88;;;1.42;;
70800;SDS011;59616;52.170;5.386;2022-11-02T08:31:47;5.85;;;1.00;;
70800;SDS011;59616;52.170;5.386;2022-11-02T08:34:14;10.57;;;1.30;;
70800;SDS011;59616;52.170;5.386;2022-11-02T08:36:41;11.57;;;1.13;;
70800;SDS011;59616;52.170;5.386;2022-11-02T08:39:08;6.45;;;1.15;;
70800;SDS011;59616;52.170;5.386;2022-11-02T08:41:42;7.45;;;1.30;;
70800;SDS011;59616;52.170;5.386;2022-11-02T08:44:09;10.10;;;1.10;;
70800;SDS011;59616;52.170;5.386;2022-11-02T08:46:36;9.00;;;1.10;;
70800;SDS011;59616;52.170;5.386;2022-11-02T08:49:04;7.15;;;0.95;;
70800;SDS011;59616;52.170;5.386;2022-11-02T08:51:31;9.50;;;1.15;;
70800;SDS011;59616;52.170;5.386;2022-11-02T08:53:58;9.02;;;1.05;;
70800;SDS011;59616;52.170;5.386;2022-11-02T08:56:25;5.90;;;0.90;;
70800;SDS011;59616;52.170;5.386;2022-11-02T08:58:52;9.23;;;1.35;;
70800;SDS011;59616;52.170;5.386;2022-11-02T09:01:19;8.20;;;1.20;;
70800;SDS011;59616;52.170;5.386;2022-11-02T09:03:46;9.63;;;1.20;;
70800;SDS011;59616;52.170;5.386;2022-11-02T09:06:13;8.13;;;1.10;;
70800;SDS011;59616;52.170;5.386;2022-11-02T09:08:40;10.52;;;1.20;;
70800;SDS011;59616;52.170;5.386;2022-11-02T09:11:07;9.27;;;1.25;;
70800;SDS011;59616;52.170;5.386;2022-11-02T09:13:36;7.47;;;1.10;;
70800;SDS011;59616;52.170;5.386;2022-11-02T09:16:03;10.90;;;1.50;;
70800;SDS011;59616;52.170;5.386;2022-11-02T09:18:30;10.82;;;1.38;;
70800;SDS011;59616;52.170;5.386;2022-11-02T09:21:01;7.13;;;0.95;;
70800;SDS011;59616;52.170;5.386;2022-11-02T09:23:28;9.20;;;1.38;;
70800;SDS011;59616;52.170;5.386;2022-11-02T09:25:56;6.00;;;1.20;;
70800;SDS011;59616;52.170;5.386;2022-11-02T09:28:24;8.63;;;1.25;;
70800;SDS011;59616;52.170;5.386;2022-11-02T09:30:51;7.53;;;1.20;;
70800;SDS011;59616;52.170;5.386;2022-11-02T09:33:18;8.50;;;1.38;;
70800;SDS011;59616;52.170;5.386;2022-11-02T09:35:46;13.52;;;1.48;;
70800;SDS011;59616;52.170;5.386;2022-11-02T09:38:14;6.57;;;0.98;;
70800;SDS011;59616;52.170;5.386;2022-11-02T09:41:28;7.80;;;1.20;;
70800;SDS011;59616;52.170;5.386;2022-11-02T09:46:25;7.95;;;1.42;;
70800;SDS011;59616;52.170;5.386;2022-11-02T09:48:55;7.63;;;1.17;;
70800;SDS011;59616;52.170;5.386;2022-11-02T09:56:22;8.77;;;1.13;;
70800;SDS011;59616;52.170;5.386;2022-11-02T09:58:57;8.63;;;1.17;;
70800;SDS011;59616;52.170;5.386;2022-11-02T10:01:29;4.60;;;0.80;;
70800;SDS011;59616;52.170;5.386;2022-11-02T10:04:01;11.10;;;1.10;;
70800;SDS011;59616;52.170;5.386;2022-11-02T10:06:30;9.95;;;0.90;;
70800;SDS011;59616;52.170;5.386;2022-11-02T10:09:10;12.82;;;1.50;;
70800;SDS011;59616;52.170;5.386;2022-11-02T10:11:56;4.30;;;0.70;;
70800;SDS011;59616;52.170;5.386;2022-11-02T10:14:28;12.57;;;1.40;;
70800;SDS011;59616;52.170;5.386;2022-11-02T10:16:58;8.07;;;1.38;;
70800;SDS011;59616;52.170;5.386;2022-11-02T10:19:26;10.57;;;1.38;;
70800;SDS011;59616;52.170;5.386;2022-11-02T10:21:56;7.60;;;1.25;;
70800;SDS011;59616;52.170;5.386;2022-11-02T10:26:55;10.07;;;0.90;;
70800;SDS011;59616;52.170;5.386;2022-11-02T10:29:25;6.93;;;1.10;;
70800;SDS011;59616;52.170;5.386;2022-11-02T10:31:55;10.35;;;1.27;;
70800;SDS011;59616;52.170;5.386;2022-11-02T10:34:23;10.80;;;1.38;;
70800;SDS011;59616;52.170;5.386;2022-11-02T10:36:59;10.48;;;1.40;;
70800;SDS011;59616;52.170;5.386;2022-11-02T10:39:32;12.55;;;1.52;;
70800;SDS011;59616;52.170;5.386;2022-11-02T10:44:53;13.63;;;1.90;;
70800;SDS011;59616;52.170;5.386;2022-11-02T10:47:24;6.18;;;1.20;;
70800;SDS011;59616;52.170;5.386;2022-11-02T10:52:22;9.10;;;1.17;;
70800;SDS011;59616;52.170;5.386;2022-11-02T10:54:50;6.75;;;0.98;;
70800;SDS011;59616;52.170;5.386;2022-11-02T10:57:19;8.10;;;0.93;;
70800;SDS011;59616;52.170;5.386;2022-11-02T11:03:00;9.07;;;1.00;;
70800;SDS011;59616;52.170;5.386;2022-11-02T11:05:27;7.15;;;0.90;;
70800;SDS011;59616;52.170;5.386;2022-11-02T11:07:55;11.90;;;1.40;;
70800;SDS011;59616;52.170;5.386;2022-11-02T11:10:22;10.10;;;2.13;;
70800;SDS011;59616;52.170;5.386;2022-11-02T11:12:49;7.03;;;1.20;;
70800;SDS011;59616;52.170;5.386;2022-11-02T11:15:28;10.93;;;1.60;;
70800;SDS011;59616;52.170;5.386;2022-11-02T11:18:12;7.82;;;1.40;;
70800;SDS011;59616;52.170;5.386;2022-11-02T11:21:02;8.65;;;1.50;;
70800;SDS011;59616;52.170;5.386;2022-11-02T11:23:33;12.57;;;1.38;;
70800;SDS011;59616;52.170;5.386;2022-11-02T11:26:01;11.05;;;1.25;;
70800;SDS011;59616;52.170;5.386;2022-11-02T11:28:30;11.68;;;1.17;;
70800;SDS011;59616;52.170;5.386;2022-11-02T11:31:05;9.88;;;1.40;;
70800;SDS011;59616;52.170;5.386;2022-11-02T11:33:33;12.73;;;1.67;;
70800;SDS011;59616;52.170;5.386;2022-11-02T11:36:07;14.10;;;1.70;;
70800;SDS011;59616;52.170;5.386;2022-11-02T11:38:36;8.45;;;1.30;;
70800;SDS011;59616;52.170;5.386;2022-11-02T11:41:10;11.05;;;1.00;;
70800;SDS011;59616;52.170;5.386;2022-11-02T11:43:38;13.18;;;1.58;;
70800;SDS011;59616;52.170;5.386;2022-11-02T11:46:06;8.90;;;1.10;;
70800;SDS011;59616;52.170;5.386;2022-11-02T11:51:01;4.97;;;0.90;;
70800;SDS011;59616;52.170;5.386;2022-11-02T11:53:29;7.68;;;1.55;;
70800;SDS011;59616;52.170;5.386;2022-11-02T11:55:59;8.73;;;1.15;;
70800;SDS011;59616;52.170;5.386;2022-11-02T11:58:30;7.65;;;1.20;;
70800;SDS011;59616;52.170;5.386;2022-11-02T12:03:49;8.45;;;1.15;;
70800;SDS011;59616;52.170;5.386;2022-11-02T12:16:51;7.50;;;0.98;;
70800;SDS011;59616;52.170;5.386;2022-11-02T12:19:32;11.35;;;1.25;;
70800;SDS011;59616;52.170;5.386;2022-11-02T12:22:13;15.63;;;2.08;;
70800;SDS011;59616;52.170;5.386;2022-11-02T12:25:08;11.07;;;1.50;;
70800;SDS011;59616;52.170;5.386;2022-11-02T12:28:02;9.77;;;1.33;;
70800;SDS011;59616;52.170;5.386;2022-11-02T12:30:38;6.32;;;1.02;;
70800;SDS011;59616;52.170;5.386;2022-11-02T12:33:25;10.93;;;1.80;;
70800;SDS011;59616;52.170;5.386;2022-11-02T12:36:10;9.52;;;1.25;;
70800;SDS011;59616;52.170;5.386;2022-11-02T12:38:52;7.70;;;1.10;;
70800;SDS011;59616;52.170;5.386;2022-11-02T12:44:01;9.18;;;1.50;;
70800;SDS011;59616;52.170;5.386;2022-11-02T12:46:40;9.98;;;1.00;;
70800;SDS011;59616;52.170;5.386;2022-11-02T12:49:35;6.65;;;1.00;;
70800;SDS011;59616;52.170;5.386;2022-11-02T12:52:12;6.28;;;1.10;;
70800;SDS011;59616;52.170;5.386;2022-11-02T12:54:45;6.00;;;1.35;;
70800;SDS011;59616;52.170;5.386;2022-11-02T12:57:14;7.82;;;1.10;;
70800;SDS011;59616;52.170;5.386;2022-11-02T12:59:42;7.50;;;1.05;;
70800;SDS011;59616;52.170;5.386;2022-11-02T13:07:25;13.57;;;1.17;;
70800;SDS011;59616;52.170;5.386;2022-11-02T13:12:39;12.80;;;1.70;;
70800;SDS011;59616;52.170;5.386;2022-11-02T13:15:10;12.63;;;1.23;;
70800;SDS011;59616;52.170;5.386;2022-11-02T13:17:46;11.45;;;1.80;;
70800;SDS011;59616;52.170;5.386;2022-11-02T13:20:22;5.18;;;1.10;;
70800;SDS011;59616;52.170;5.386;2022-11-02T13:22:54;10.70;;;1.30;;
70800;SDS011;59616;52.170;5.386;2022-11-02T13:25:25;7.05;;;0.90;;
70800;SDS011;59616;52.170;5.386;2022-11-02T13:28:00;11.10;;;1.65;;
70800;SDS011;59616;52.170;5.386;2022-11-02T13:30:31;7.07;;;0.90;;
70800;SDS011;59616;52.170;5.386;2022-11-02T13:33:00;5.70;;;0.73;;
70800;SDS011;59616;52.170;5.386;2022-11-02T13:35:33;11.95;;;1.25;;
70800;SDS011;59616;52.170;5.386;2022-11-02T13:38:04;5.78;;;1.05;;
70800;SDS011;59616;52.170;5.386;2022-11-02T13:40:37;7.40;;;1.10;;
70800;SDS011;59616;52.170;5.386;2022-11-02T13:48:54;11.32;;;1.40;;
70800;SDS011;59616;52.170;5.386;2022-11-02T13:51:35;11.23;;;1.40;;
70800;SDS011;59616;52.170;5.386;2022-11-02T13:54:05;6.85;;;1.05;;
70800;SDS011;59616;52.170;5.386;2022-11-02T13:56:36;7.80;;;1.52;;
70800;SDS011;59616;52.170;5.386;2022-11-02T13:59:05;9.88;;;1.27;;
70800;SDS011;59616;52.170;5.386;2022-11-02T14:01:33;6.50;;;1.05;;
70800;SDS011;59616;52.170;5.386;2022-11-02T14:04:03;10.85;;;1.40;;
70800;SDS011;59616;52.170;5.386;2022-11-02T14:06:31;8.02;;;1.15;;
70800;SDS011;59616;52.170;5.386;2022-11-02T14:09:00;10.05;;;1.48;;
70800;SDS011;59616;52.170;5.386;2022-11-02T14:27:02;6.60;;;1.08;;
70800;SDS011;59616;52.170;5.386;2022-11-02T14:34:43;5.82;;;1.48;;
70800;SDS011;59616;52.170;5.386;2022-11-02T14:48:03;8.18;;;1.35;;
70800;SDS011;59616;52.170;5.386;2022-11-02T14:50:30;12.38;;;1.88;;
70800;SDS011;59616;52.170;5.386;2022-11-02T14:55:30;11.23;;;1.48;;
70800;SDS011;59616;52.170;5.386;2022-11-02T14:58:05;8.13;;;1.77;;
70800;SDS011;59616;52.170;5.386;2022-11-02T15:06:02;8.80;;;1.50;;
70800;SDS011;59616;52.170;5.386;2022-11-02T15:08:34;11.63;;;1.77;;
70800;SDS011;59616;52.170;5.386;2022-11-02T15:19:50;14.15;;;1.60;;
70800;SDS011;59616;52.170;5.386;2022-11-02T15:22:40;8.75;;;1.20;;
70800;SDS011;59616;52.170;5.386;2022-11-02T15:25:11;8.98;;;1.55;;
70800;SDS011;59616;52.170;5.386;2022-11-02T15:27:40;12.48;;;1.70;;
70800;SDS011;59616;52.170;5.386;2022-11-02T15:30:20;8.68;;;1.35;;
70800;SDS011;59616;52.170;5.386;2022-11-02T15:33:00;14.38;;;1.42;;
70800;SDS011;59616;52.170;5.386;2022-11-02T15:35:33;7.65;;;1.40;;
70800;SDS011;59616;52.170;5.386;2022-11-02T15:38:03;10.63;;;1.92;;
70800;SDS011;59616;52.170;5.386;2022-11-02T15:40:52;12.43;;;1.50;;
70800;SDS011;59616;52.170;5.386;2022-11-02T15:46:03;10.18;;;1.27;;
70800;SDS011;59616;52.170;5.386;2022-11-02T15:51:11;11.18;;;1.63;;
70800;SDS011;59616;52.170;5.386;2022-11-02T16:02:40;10.88;;;1.65;;
70800;SDS011;59616;52.170;5.386;2022-11-02T16:04:57;12.52;;;1.40;;
70800;SDS011;59616;52.170;5.386;2022-11-02T16:07:26;7.60;;;1.73;;
70800;SDS011;59616;52.170;5.386;2022-11-02T16:10:09;11.80;;;1.75;;
70800;SDS011;59616;52.170;5.386;2022-11-02T16:12:36;12.10;;;1.60;;
70800;SDS011;59616;52.170;5.386;2022-11-02T16:15:11;11.55;;;1.58;;
70800;SDS011;59616;52.170;5.386;2022-11-02T16:17:38;7.40;;;1.40;;
70800;SDS011;59616;52.170;5.386;2022-11-02T16:20:13;7.80;;;1.42;;
70800;SDS011;59616;52.170;5.386;2022-11-02T16:22:46;10.90;;;1.27;;
70800;SDS011;59616;52.170;5.386;2022-11-02T16:25:23;10.88;;;1.40;;
70800;SDS011;59616;52.170;5.386;2022-11-02T16:27:53;8.52;;;1.45;;
70800;SDS011;59616;52.170;5.386;2022-11-02T16:30:21;12.23;;;2.28;;
70800;SDS011;59616;52.170;5.386;2022-11-02T16:32:50;15.18;;;2.55;;
70800;SDS011;59616;52.170;5.386;2022-11-02T16:35:18;13.30;;;2.95;;
70800;SDS011;59616;52.170;5.386;2022-11-02T16:37:47;18.25;;;2.97;;
70800;SDS011;59616;52.170;5.386;2022-11-02T16:40:16;14.68;;;3.50;;
70800;SDS011;59616;52.170;5.386;2022-11-02T16:42:50;20.45;;;2.95;;
70800;SDS011;59616;52.170;5.386;2022-11-02T16:45:51;14.07;;;3.00;;
70800;SDS011;59616;52.170;5.386;2022-11-02T16:48:19;13.77;;;2.63;;
70800;SDS011;59616;52.170;5.386;2022-11-02T16:50:58;14.70;;;2.58;;
70800;SDS011;59616;52.170;5.386;2022-11-02T16:53:26;13.32;;;2.97;;
70800;SDS011;59616;52.170;5.386;2022-11-02T16:55:54;13.48;;;1.92;;
70800;SDS011;59616;52.170;5.386;2022-11-02T16:58:25;19.55;;;2.85;;
70800;SDS011;59616;52.170;5.386;2022-11-02T17:03:21;13.38;;;1.75;;
70800;SDS011;59616;52.170;5.386;2022-11-02T17:05:49;13.52;;;2.00;;
70800;SDS011;59616;52.170;5.386;2022-11-02T17:08:32;10.30;;;1.67;;
70800;SDS011;59616;52.170;5.386;2022-11-02T17:11:01;15.95;;;2.17;;
70800;SDS011;59616;52.170;5.386;2022-11-02T17:13:30;11.73;;;1.70;;
70800;SDS011;59616;52.170;5.386;2022-11-02T17:16:04;9.52;;;1.55;;
70800;SDS011;59616;52.170;5.386;2022-11-02T17:18:32;8.07;;;1.65;;
70800;SDS011;59616;52.170;5.386;2022-11-02T17:23:42;13.15;;;2.15;;